createdAt,value
2024-02-14T00:02:41.230Z,23.6
2024-02-14T00:08:20.408Z,23.3
2024-02-14T00:13:28.477Z,29.5
2024-02-14T00:18:52.474Z,32.9
2024-02-14T00:24:16.354Z,31.2
2024-02-14T00:29:55.876Z,28.7
2024-02-14T00:35:21.848Z,26.6
2024-02-14T00:40:45.227Z,25.5
2024-02-14T00:46:08.869Z,24.9
2024-02-14T00:51:50.255Z,24.4
2024-02-14T00:57:28.841Z,23.9
2024-02-14T01:03:08.396Z,23.6
2024-02-14T01:08:48.024Z,23.3
2024-02-14T01:14:27.295Z,24.1
2024-02-14T01:19:52.183Z,31.4
2024-02-14T08:13:03.175Z,24.1
2024-02-14T08:18:31.284Z,23.6
2024-02-14T08:23:59.704Z,23.2
2024-02-14T08:29:39.141Z,22.8
2024-02-14T08:35:19.863Z,22.6
2024-02-14T08:41:05.742Z,27.6
2024-02-14T08:46:46.026Z,31.6
2024-02-14T08:52:30.627Z,30.9
2024-02-14T08:58:14.210Z,28.7
2024-02-14T09:04:09.419Z,26.3
2024-02-14T09:09:49.388Z,24.8
2024-02-14T09:15:28.539Z,24.1
2024-02-14T09:21:10.176Z,23.4
2024-02-14T09:26:49.327Z,23.1
2024-02-14T09:32:26.686Z,28.4
2024-02-14T09:38:08.880Z,31.9
2024-02-14T09:43:48.324Z,30.9
2024-02-14T09:49:32.796Z,28.4
2024-02-14T09:55:12.569Z,26.2
2024-02-14T10:00:52.779Z,24.8
2024-02-14T10:06:32.783Z,24.1
2024-02-14T10:12:10.164Z,23.5
2024-02-14T10:17:51.203Z,23.1
2024-02-14T10:23:31.783Z,27.1
2024-02-14T10:29:17.071Z,31.4
2024-02-14T10:35:10.898Z,31.1
2024-02-14T10:40:50.077Z,30.1
2024-02-14T10:46:32.486Z,26.4
2024-02-14T10:52:13.287Z,25.6
2024-02-14T10:57:51.768Z,24.1
2024-02-14T11:03:17.137Z,23.7
2024-02-14T11:08:56.733Z,23.1
2024-02-14T11:14:37.145Z,23.3
2024-02-14T11:20:18.456Z,30.5
2024-02-14T11:25:59.067Z,31.4
2024-02-14T11:31:52.741Z,30.5
2024-02-14T11:37:34.153Z,26.9
2024-02-14T11:43:16.137Z,25.8
2024-02-14T11:48:58.088Z,25.2
2024-02-14T11:54:37.688Z,25.6
2024-02-14T12:00:17.052Z,31.2
2024-02-14T12:05:57.816Z,31.3
2024-02-14T12:11:38.419Z,30.3
2024-02-14T12:17:18.349Z,26.8
2024-02-14T12:22:57.964Z,25.6
2024-02-14T12:28:37.592Z,25.1
2024-02-14T12:34:24.920Z,24.6
2024-02-14T12:40:04.201Z,30.1
2024-02-14T12:45:43.516Z,31.6
2024-02-14T12:51:23.578Z,30.7
2024-02-14T12:57:01.776Z,29.7
2024-02-14T13:02:41.775Z,28.8
2024-02-14T13:08:21.614Z,27.9
2024-02-14T13:14:00.981Z,27
2024-02-14T13:19:42.201Z,27.6
2024-02-14T13:25:21.536Z,31.6
2024-02-14T13:30:44.230Z,31.2
2024-02-14T13:36:25.497Z,30.3
2024-02-14T13:42:03.802Z,29.3
2024-02-14T13:47:45.227Z,28.4
2024-02-14T13:53:27.652Z,27.5
2024-02-14T13:59:07.746Z,26.6
2024-02-14T14:04:45.073Z,30
2024-02-14T14:10:41.784Z,31.7
2024-02-14T14:16:22.982Z,30.8
2024-02-14T14:22:04.368Z,29.8
2024-02-14T14:27:46.030Z,28.9
2024-02-14T14:33:32.830Z,27.9
2024-02-14T14:39:12.051Z,26.9
2024-02-14T14:44:39.016Z,26
2024-02-14T14:50:21.845Z,25.3
2024-02-14T14:56:04.486Z,24.6
2024-02-14T15:01:46.936Z,24.1
2024-02-14T15:07:11.619Z,23.5
2024-02-14T15:12:52.432Z,23.1
2024-02-14T15:18:34.139Z,22.8
2024-02-14T15:24:17.142Z,22.4
2024-02-14T15:29:56.217Z,26.1
2024-02-14T15:35:36.822Z,32.8
2024-02-14T15:41:16.051Z,36.1
2024-02-14T15:46:38.745Z,38.3
2024-02-14T15:52:03.993Z,39.6
2024-02-14T15:57:43.061Z,40.1
2024-02-14T16:03:22.170Z,40.4
2024-02-14T16:09:02.048Z,40.2
2024-02-14T16:14:41.378Z,39.6
2024-02-14T16:20:22.597Z,39.1
2024-02-14T16:26:16.366Z,38.6
2024-02-14T16:31:54.921Z,37.1
2024-02-14T16:37:35.366Z,37.6
2024-02-14T16:43:29.351Z,35.9
2024-02-14T16:49:11.927Z,35.9
2024-02-14T16:54:54.545Z,37.9
2024-02-14T17:00:37.271Z,36.6
2024-02-14T17:06:14.907Z,38.3
2024-02-14T17:11:55.409Z,38.5
2024-02-14T17:17:22.997Z,36.9
2024-02-14T17:23:12.570Z,37
2024-02-14T17:28:50.975Z,35.9
2024-02-14T17:34:43.982Z,36.3
2024-02-14T17:40:23.562Z,36.4
2024-02-14T17:45:46.483Z,36.8
2024-02-14T17:51:26.401Z,35.4
2024-02-14T17:57:05.515Z,34.2
2024-02-14T18:02:44.379Z,33.6
2024-02-14T18:08:11.252Z,33.1
2024-02-14T18:13:52.350Z,32.5
2024-02-14T18:19:15.893Z,34.5
2024-02-14T18:24:56.527Z,36.5
2024-02-14T18:30:35.224Z,37.8
2024-02-14T18:36:02.137Z,37.8
2024-02-14T18:41:41.490Z,37.2
2024-02-14T18:47:19.528Z,37.1
2024-02-14T18:52:59.193Z,37.1
2024-02-14T18:58:38.108Z,35.9
2024-02-14T19:04:19.029Z,38.1
2024-02-14T19:09:58.104Z,37.5
2024-02-14T19:15:36.640Z,37.5
2024-02-14T19:21:30.108Z,37.2
2024-02-14T19:27:08.939Z,38.4
